TAF KEWR
AMD KEWR 080233Z 0803/0906 27006KT P6SM BKN120 FM080400 VRB04KT P6SM BKN120 FM081500 07004KT P6SM SCT050 OVC080 FM081800 16005KT P6SM SCT040 OVC070 FM082100 25008KT P6SM SCT040 OVC070 FM082300 30010KT P6SM BKN040 OVC070 FM090300 30012G19KT P6SM SCT050 BKN080=
METAR KEWR
WC KEWR
WS KEWR
WV KEWR